createdAt,value
2019-04-07T00:00:08.994Z,56.3
2019-04-07T00:00:59.607Z,56.3
2019-04-07T00:01:47.978Z,56.3
2019-04-07T00:02:37.355Z,56.3
2019-04-07T00:03:27.757Z,56.3
2019-04-07T00:04:17.459Z,56.3
2019-04-07T00:05:19.544Z,56.2
2019-04-07T00:05:57.507Z,56.2
2019-04-07T00:06:47.663Z,56.2
2019-04-07T00:07:37.878Z,56.2
2019-04-07T00:08:28.278Z,56.2
2019-04-07T00:09:18.837Z,56.2
2019-04-07T00:10:06.276Z,56.2
2019-04-07T00:10:56.295Z,56.2
2019-04-07T00:11:47.638Z,56.2
2019-04-07T00:12:37.985Z,56.2
2019-04-07T00:13:27.113Z,56.2
2019-04-07T00:14:18.054Z,56.1
2019-04-07T00:15:10.615Z,56.1
2019-04-07T00:15:57.910Z,56.1
2019-04-07T00:16:47.272Z,56.1
2019-04-07T00:17:37.525Z,56.1
2019-04-07T00:18:28.093Z,56.1
2019-04-07T00:19:19.181Z,56.1
2019-04-07T00:20:10.318Z,56.1
2019-04-07T00:20:59.422Z,56.1
2019-04-07T00:21:48.904Z,56.1
2019-04-07T00:22:38.755Z,56.1
2019-04-07T00:23:27.462Z,56.1
2019-04-07T00:24:19.078Z,56.1
2019-04-07T00:25:07.944Z,56.1
2019-04-07T00:25:58.846Z,56.1
2019-04-07T00:26:48.017Z,56.1
2019-04-07T00:27:39.137Z,56.1
2019-04-07T00:28:27.524Z,56.1
2019-04-07T00:29:18.367Z,56.1
2019-04-07T00:30:09.836Z,56.1
2019-04-07T00:30:57.882Z,56
2019-04-07T00:31:48.206Z,56
2019-04-07T00:32:38.788Z,56
2019-04-07T00:33:30.954Z,56
2019-04-07T00:34:19.709Z,56
2019-04-07T00:35:28.261Z,55.9
2019-04-07T00:36:01.787Z,55.9
2019-04-07T00:36:49.386Z,56
2019-04-07T00:37:40.252Z,55.9
2019-04-07T00:38:29.337Z,55.9
2019-04-07T00:39:21.276Z,55.9
2019-04-07T00:40:12.038Z,55.9
2019-04-07T00:41:01.869Z,55.9
2019-04-07T00:41:50.936Z,55.9
2019-04-07T00:42:40.230Z,55.9
2019-04-07T00:43:32.433Z,55.9
2019-04-07T00:44:22.321Z,55.9
2019-04-07T00:45:11.370Z,55.9
2019-04-07T00:46:00.283Z,55.9
2019-04-07T00:46:52.565Z,55.9
2019-04-07T00:47:42.438Z,55.9
2019-04-07T00:48:31.112Z,55.9
2019-04-07T00:49:21.077Z,55.9
2019-04-07T00:50:12.141Z,55.9
2019-04-07T00:51:00.273Z,55.9
2019-04-07T00:51:53.838Z,55.8
2019-04-07T00:52:41.688Z,55.9
2019-04-07T00:53:31.571Z,55.8
2019-04-07T00:54:21.384Z,55.8
2019-04-07T00:55:13.030Z,55.8
2019-04-07T00:56:01.882Z,55.8
2019-04-07T00:56:50.140Z,55.8
2019-04-07T00:57:41.641Z,55.8
2019-04-07T00:58:33.387Z,55.8
2019-04-07T00:59:22.197Z,55.8
2019-04-07T01:00:12.285Z,55.8
2019-04-07T01:01:01.453Z,55.8
2019-04-07T01:01:51.433Z,55.8
2019-04-07T01:02:44.047Z,55.8
2019-04-07T01:03:31.868Z,55.8
2019-04-07T01:04:22.059Z,55.8
2019-04-07T01:05:10.497Z,55.8
2019-04-07T01:06:02.190Z,55.8
2019-04-07T01:06:51.602Z,55.8
2019-04-07T01:07:44.235Z,55.7
2019-04-07T01:08:34.044Z,55.7
2019-04-07T01:09:22.362Z,55.7
2019-04-07T01:10:12.465Z,55.7
2019-04-07T01:11:00.516Z,55.7
2019-04-07T01:11:54.871Z,55.7
2019-04-07T01:12:42.768Z,55.6
2019-04-07T01:13:32.941Z,55.7
2019-04-07T01:14:21.427Z,55.7
2019-04-07T01:15:12.932Z,55.6
2019-04-07T01:16:03.026Z,55.6
2019-04-07T01:16:53.411Z,55.6
2019-04-07T01:17:42.174Z,55.6
2019-04-07T01:18:33.821Z,55.6
2019-04-07T01:19:25.288Z,55.6
2019-04-07T01:20:13.047Z,55.6
2019-04-07T01:21:02.846Z,55.6
2019-04-07T01:21:53.575Z,55.6
2019-04-07T01:22:43.591Z,55.6
2019-04-07T01:23:32.455Z,55.6
2019-04-07T01:24:25.701Z,55.6
2019-04-07T01:25:12.757Z,55.6
2019-04-07T01:26:03.137Z,55.6
2019-04-07T01:26:53.526Z,55.6
2019-04-07T01:27:44.485Z,55.6
2019-04-07T01:28:32.717Z,55.6
2019-04-07T01:29:22.960Z,55.5
2019-04-07T01:30:14.995Z,55.5
2019-04-07T01:31:03.377Z,55.6
2019-04-07T01:31:53.836Z,55.6
2019-04-07T01:32:43.256Z,55.5
2019-04-07T01:33:34.023Z,55.5
2019-04-07T01:34:24.011Z,55.5
2019-04-07T01:35:16.798Z,55.5
2019-04-07T01:36:04.226Z,55.5
2019-04-07T01:36:52.620Z,55.5
2019-04-07T01:37:45.982Z,55.5
2019-04-07T01:38:34.751Z,55.6
2019-04-07T01:39:24.570Z,55.8
2019-04-07T01:40:14.474Z,56
2019-04-07T01:41:07.341Z,56.2
2019-04-07T01:41:54.485Z,56.4
2019-04-07T01:42:45.567Z,56.6
2019-04-07T01:43:34.890Z,56.9
2019-04-07T01:44:25.565Z,57.1
2019-04-07T01:45:16.891Z,57.3
2019-04-07T01:46:05.227Z,57.6
2019-04-07T01:46:53.925Z,57.8
2019-04-07T01:47:44.771Z,58.1
2019-04-07T01:48:34.459Z,58.3
2019-04-07T01:49:23.040Z,58.6
2019-04-07T01:50:16.433Z,58.8
2019-04-07T01:51:04.483Z,59.1
2019-04-07T01:51:54.420Z,59.4
2019-04-07T01:52:44.777Z,59.6
2019-04-07T01:53:35.588Z,59.9
2019-04-07T01:54:27.139Z,60.1
2019-04-07T01:55:15.989Z,60.1
2019-04-07T01:56:05.422Z,60.3
2019-04-07T01:56:55.296Z,60.6
2019-04-07T01:57:46.504Z,60.8
2019-04-07T01:58:38.124Z,60.9
2019-04-07T01:59:26.781Z,60.9
2019-04-07T02:00:15.257Z,61.2
2019-04-07T02:01:06.515Z,61.4
2019-04-07T02:01:57.056Z,61.4
2019-04-07T02:02:46.660Z,61.5
2019-04-07T02:03:38.734Z,61.8
2019-04-07T02:04:27.047Z,61.9
2019-04-07T02:05:16.516Z,62
2019-04-07T02:06:09.699Z,62
2019-04-07T02:06:57.514Z,62.3
2019-04-07T02:07:46.732Z,62.4
2019-04-07T02:08:36.291Z,62.5
2019-04-07T02:09:29.549Z,62.5
2019-04-07T02:10:17.067Z,62.7
2019-04-07T02:11:07.538Z,62.8
2019-04-07T02:11:56.666Z,62.9
2019-04-07T02:12:47.738Z,62.9
2019-04-07T02:13:39.274Z,63.2
2019-04-07T02:14:27.661Z,63.3
2019-04-07T02:15:18.526Z,63.3
2019-04-07T02:16:06.673Z,63.4
2019-04-07T02:16:59.210Z,63.6
2019-04-07T02:17:48.591Z,63.7
2019-04-07T02:18:37.834Z,63.8
2019-04-07T02:19:27.787Z,63.8
2019-04-07T02:20:17.814Z,63.9
2019-04-07T02:21:10.227Z,64
2019-04-07T02:21:57.200Z,64.1
2019-04-07T02:22:47.504Z,64.1
2019-04-07T02:23:37.126Z,64.3
2019-04-07T02:24:30.873Z,64.4
2019-04-07T02:25:18.483Z,64.4
2019-04-07T02:26:08.665Z,64.4
2019-04-07T02:26:56.798Z,64.5
2019-04-07T02:27:50.034Z,64.7
2019-04-07T02:28:38.841Z,64.8
2019-04-07T02:29:29.669Z,64.8
2019-04-07T02:30:21.691Z,64.8
2019-04-07T02:31:10.121Z,64.9
2019-04-07T02:32:00.223Z,65.1
2019-04-07T02:32:52.904Z,65.1
2019-04-07T02:33:40.366Z,65.1
2019-04-07T02:34:30.866Z,65.1
2019-04-07T02:35:19.318Z,65.3
2019-04-07T02:36:37.496Z,65.3
2019-04-07T02:37:00.607Z,65.4
2019-04-07T02:37:50.503Z,65.4
2019-04-07T02:38:40.063Z,65.4
2019-04-07T02:39:30.422Z,65.6
2019-04-07T02:40:19.700Z,65.6
2019-04-07T02:41:12.329Z,65.6
2019-04-07T02:42:00.294Z,65.6
2019-04-07T02:42:50.769Z,65.7
2019-04-07T02:43:38.173Z,65.7
2019-04-07T02:44:32.051Z,65.7
2019-04-07T02:45:21.709Z,65.7
2019-04-07T02:46:10.996Z,65.8
2019-04-07T02:47:00.782Z,65.8
2019-04-07T02:47:49.876Z,65.7
2019-04-07T02:48:39.994Z,65.7
2019-04-07T02:49:30.227Z,65.7
2019-04-07T02:50:20.148Z,65.7
2019-04-07T02:51:10.174Z,65.7
2019-04-07T02:51:58.995Z,65.7
2019-04-07T02:52:53.414Z,65.7
2019-04-07T02:53:42.041Z,65.7
2019-04-07T02:54:30.825Z,65.7
2019-04-07T02:55:19.553Z,65.7
2019-04-07T02:56:11.847Z,65.7
2019-04-07T02:57:00.131Z,65.6
2019-04-07T02:57:51.874Z,65.6
2019-04-07T02:58:40.872Z,65.6
2019-04-07T02:59:31.653Z,65.6
2019-04-07T03:00:22.774Z,65.6
2019-04-07T03:01:11.994Z,65.6
2019-04-07T03:02:00.890Z,65.6
2019-04-07T03:02:52.349Z,65.6
2019-04-07T03:03:43.734Z,65.6
2019-04-07T03:07:27.529Z,65.5
2019-04-07T03:08:01.446Z,65.5
2019-04-07T03:08:53.576Z,65.5
2019-04-07T03:09:56.786Z,65.5
2019-04-07T03:10:31.080Z,65.5
2019-04-07T03:11:25.466Z,65.5
2019-04-07T03:12:10.926Z,65.4
2019-04-07T03:13:03.643Z,65.4
2019-04-07T03:13:52.331Z,65.4
2019-04-07T03:14:42.856Z,65.4
2019-04-07T03:15:32.443Z,65.4
2019-04-07T03:16:24.171Z,65.4
2019-04-07T03:17:12.360Z,65.4
2019-04-07T03:18:02.792Z,65.4
2019-04-07T03:18:52.508Z,65.4
2019-04-07T03:19:43.258Z,65.4
2019-04-07T03:20:33.723Z,65.4
2019-04-07T03:21:23.061Z,65.4
2019-04-07T03:22:13.170Z,65.4
2019-04-07T03:23:05.133Z,65.4
2019-04-07T03:23:54.771Z,65.4
2019-04-07T03:24:43.026Z,65.3
2019-04-07T03:25:34.147Z,65.3
2019-04-07T03:26:25.589Z,65.3
2019-04-07T03:27:13.933Z,65.3
2019-04-07T03:28:04.569Z,65.3
2019-04-07T03:28:55.730Z,65.3
2019-04-07T03:30:00.807Z,65.3
2019-04-07T03:30:58.997Z,65.3
2019-04-07T03:31:50.960Z,65.3
2019-04-07T03:33:15.377Z,65.3
2019-04-07T03:34:33.455Z,65.2
2019-04-07T03:35:35.126Z,65.2
2019-04-07T03:37:51.501Z,65.2
2019-04-07T03:38:10.657Z,65.1
2019-04-07T03:39:01.967Z,65.2
2019-04-07T03:40:07.040Z,65.1
2019-04-07T03:40:39.556Z,65.1
2019-04-07T03:41:44.436Z,65.1
2019-04-07T03:42:19.351Z,65.1
2019-04-07T03:43:10.801Z,65.1
2019-04-07T03:44:03.808Z,65.1
2019-04-07T03:44:51.747Z,65.1
2019-04-07T03:45:39.594Z,65.1
2019-04-07T03:46:31.089Z,65.1
2019-04-07T03:47:22.259Z,65.1
2019-04-07T03:48:12.301Z,65.1
2019-04-07T03:49:00.447Z,65.1
2019-04-07T03:49:51.385Z,65
2019-04-07T03:50:41.758Z,65
2019-04-07T03:51:31.884Z,65
2019-04-07T03:52:22.924Z,65
2019-04-07T03:53:11.141Z,65
2019-04-07T03:54:01.202Z,65
2019-04-07T03:54:51.424Z,65
2019-04-07T03:56:32.221Z,64.9
2019-04-07T03:57:21.417Z,64.9
2019-04-07T03:58:13.979Z,64.9
2019-04-07T03:59:01.829Z,64.9
2019-04-07T03:59:52.451Z,64.9
2019-04-07T04:00:42.235Z,64.9
2019-04-07T04:01:34.199Z,64.9
2019-04-07T04:02:22.686Z,64.9
2019-04-07T04:03:13.438Z,64.9
2019-04-07T04:04:03.270Z,64.9
2019-04-07T04:04:52.998Z,64.9
2019-04-07T04:05:43.295Z,64.9
2019-04-07T04:06:35.343Z,64.9
2019-04-07T04:07:42.802Z,64.9
2019-04-07T04:08:12.268Z,64.8
2019-04-07T04:09:03.156Z,64.8
2019-04-07T04:09:52.261Z,64.8
2019-04-07T04:10:44.902Z,64.8
2019-04-07T04:11:32.910Z,64.8
2019-04-07T04:12:22.639Z,64.8
2019-04-07T04:13:14.341Z,64.8
2019-04-07T04:14:03.457Z,64.8
2019-04-07T04:14:53.270Z,64.8
2019-04-07T04:15:45.221Z,64.8
2019-04-07T04:16:32.668Z,64.8
2019-04-07T04:17:23.505Z,64.8
2019-04-07T04:18:13.796Z,64.8
2019-04-07T04:19:07.235Z,64.8
2019-04-07T04:19:53.527Z,64.8
2019-04-07T04:20:44.345Z,64.8
2019-04-07T04:21:34.857Z,64.7
2019-04-07T04:22:24.575Z,64.7
2019-04-07T04:23:17.515Z,64.7
2019-04-07T04:24:06.510Z,64.7
2019-04-07T04:24:55.363Z,64.7
2019-04-07T04:25:47.648Z,64.7
2019-04-07T04:26:33.305Z,64.7
2019-04-07T04:27:24.955Z,64.6
2019-04-07T04:28:13.060Z,64.6
2019-04-07T04:29:07.125Z,64.6
2019-04-07T04:29:59.266Z,64.6
2019-04-07T04:30:45.683Z,64.6
2019-04-07T04:31:33.759Z,64.6
2019-04-07T04:32:26.165Z,64.6
2019-04-07T04:33:13.784Z,64.6
2019-04-07T04:34:05.476Z,64.6
2019-04-07T04:34:55.226Z,64.6
2019-04-07T04:35:46.541Z,64.6
2019-04-07T04:36:50.188Z,64.6
2019-04-07T04:37:58.028Z,64.6
2019-04-07T04:38:16.278Z,64.5
2019-04-07T04:39:06.442Z,64.6
2019-04-07T04:39:58.380Z,64.5
2019-04-07T04:40:47.301Z,64.5
2019-04-07T04:41:37.893Z,64.5
2019-04-07T04:42:27.376Z,64.5
2019-04-07T04:43:18.515Z,64.5
2019-04-07T04:44:06.873Z,64.5
2019-04-07T04:44:57.090Z,64.4
2019-04-07T04:45:46.692Z,64.4
2019-04-07T04:46:38.658Z,64.4
2019-04-07T04:47:27.978Z,64.4
2019-04-07T04:48:17.246Z,64.4
2019-04-07T04:49:08.270Z,64.4
2019-04-07T04:49:56.180Z,64.4
2019-04-07T04:50:47.791Z,64.4
2019-04-07T04:51:45.120Z,64.4
2019-04-07T04:52:26.047Z,64.4
2019-04-07T04:53:17.098Z,64.4
2019-04-07T04:54:08.297Z,64.4
2019-04-07T04:54:58.074Z,64.4
2019-04-07T04:55:48.762Z,64.4
2019-04-07T04:56:37.326Z,64.4
2019-04-07T04:57:28.870Z,64.3
2019-04-07T06:05:12.036Z,63.6
2019-04-07T06:06:04.042Z,63.6
2019-04-07T06:07:00.893Z,63.6
2019-04-07T06:07:42.520Z,63.6
2019-04-07T06:08:50.635Z,63.6
2019-04-07T06:09:27.923Z,63.6
2019-04-07T06:10:12.177Z,63.6
2019-04-07T06:11:07.349Z,63.6
2019-04-07T06:11:53.472Z,63.5
2019-04-07T06:12:50.888Z,63.5
2019-04-07T06:13:35.534Z,63.5
2019-04-07T06:14:24.267Z,63.5
2019-04-07T06:15:12.867Z,63.5
2019-04-07T06:16:03.042Z,63.5
2019-04-07T06:16:57.392Z,63.5
2019-04-07T06:17:44.587Z,63.4
2019-04-07T06:18:38.892Z,63.4
2019-04-07T06:19:22.979Z,63.4
2019-04-07T06:20:20.374Z,63.4
2019-04-07T06:21:02.720Z,63.4
2019-04-07T06:21:54.132Z,63.4
2019-04-07T06:22:45.425Z,63.4
2019-04-07T06:23:35.348Z,63.4
2019-04-07T06:24:35.103Z,63.4
2019-04-07T06:25:14.550Z,63.4
2019-04-07T06:26:11.614Z,63.4
2019-04-07T06:26:54.319Z,63.4
2019-04-07T06:27:50.057Z,63.4
2019-04-07T06:28:32.665Z,63.3
2019-04-07T06:29:29.199Z,63.3
2019-04-07T06:30:14.649Z,63.3
2019-04-07T06:31:08.235Z,63.3
2019-04-07T06:31:53.894Z,63.3
2019-04-07T06:32:47.784Z,63.3
2019-04-07T06:33:41.476Z,63.3
2019-04-07T06:34:23.765Z,63.3
2019-04-07T06:35:19.253Z,63.3
2019-04-07T06:36:05.003Z,63.3
2019-04-07T06:37:00.607Z,63.3
2019-04-07T06:37:44.415Z,63.3
2019-04-07T06:38:55.804Z,63.3
2019-04-07T06:39:25.126Z,63.2
2019-04-07T06:40:20.292Z,63.3
2019-04-07T06:41:07.314Z,63.2
2019-04-07T06:41:53.953Z,63.2
2019-04-07T06:42:48.844Z,63.2
2019-04-07T06:43:41.199Z,63.1
2019-04-07T06:44:27.783Z,63.2
2019-04-07T06:45:15.081Z,63.1
2019-04-07T06:46:04.880Z,63.1
2019-04-07T06:46:57.827Z,63.1
2019-04-07T06:47:43.838Z,63.1
2019-04-07T06:48:40.259Z,63.1
2019-04-07T06:49:30.055Z,63.1
2019-04-07T06:50:20.562Z,63.1
2019-04-07T06:51:07.050Z,63.1
2019-04-07T06:52:00.616Z,63.1
2019-04-07T06:52:45.257Z,63.1
2019-04-07T06:53:34.850Z,63.1
2019-04-07T06:54:27.447Z,63
2019-04-07T06:55:14.643Z,63
2019-04-07T06:56:08.915Z,63
2019-04-07T06:56:56.500Z,63
2019-04-07T06:57:46.787Z,63
2019-04-07T06:58:43.788Z,63
2019-04-07T06:59:24.864Z,62.9
2019-04-07T07:00:15.153Z,63
2019-04-07T07:01:07.801Z,62.9
2019-04-07T07:02:00.343Z,62.9
2019-04-07T07:02:47.746Z,62.9
2019-04-07T07:05:25.099Z,62.9
2019-04-07T07:06:05.687Z,62.9
2019-04-07T07:07:10.344Z,62.9
2019-04-07T07:07:55.222Z,62.9
2019-04-07T07:08:59.863Z,62.9
2019-04-07T07:09:35.003Z,62.8
2019-04-07T07:10:44.074Z,62.9
2019-04-07T07:11:31.818Z,62.8
2019-04-07T07:12:01.630Z,62.8
2019-04-07T07:12:51.766Z,62.8
2019-04-07T07:13:55.122Z,62.8
2019-04-07T07:14:52.817Z,62.8
2019-04-07T07:15:41.018Z,62.8
2019-04-07T07:16:24.910Z,62.8
2019-04-07T07:17:21.332Z,62.8
2019-04-07T07:18:07.950Z,62.8
2019-04-07T07:19:02.525Z,62.8
2019-04-07T07:20:01.608Z,62.8
2019-04-07T07:20:36.145Z,62.7
2019-04-07T07:21:26.199Z,62.7
2019-04-07T07:22:21.796Z,62.7
2019-04-07T07:23:19.212Z,62.7
2019-04-07T07:23:54.493Z,62.7
2019-04-07T07:25:04.129Z,62.7
2019-04-07T07:25:38.993Z,62.6
2019-04-07T07:26:32.779Z,62.6
2019-04-07T07:27:16.367Z,62.6
2019-04-07T07:28:04.798Z,62.6
2019-04-07T07:29:55.345Z,62.6
2019-04-07T07:30:33.938Z,62.6
2019-04-07T07:31:30.306Z,62.6
2019-04-07T07:32:16.946Z,62.6
2019-04-07T07:33:12.625Z,62.6
2019-04-07T07:33:55.203Z,62.5
2019-04-07T07:34:45.783Z,62.5
2019-04-07T07:35:35.091Z,62.5
2019-04-07T07:36:29.183Z,62.5
2019-04-07T07:37:16.370Z,62.5
2019-04-07T07:38:13.673Z,62.5
2019-04-07T10:06:17.799Z,60.4
2019-04-07T10:06:59.027Z,60.4
2019-04-07T10:07:54.352Z,60.4
2019-04-07T10:08:40.596Z,60.4
2019-04-07T10:09:30.646Z,60.4
2019-04-07T10:10:22.588Z,60.4
2019-04-07T10:11:10.659Z,60.4
2019-04-07T10:12:00.630Z,60.4
2019-04-07T10:12:52.016Z,60.4
2019-04-07T10:13:41.954Z,60.3
2019-04-07T10:14:32.073Z,60.3
2019-04-07T10:15:22.405Z,60.3
2019-04-07T10:16:17.515Z,60.3
2019-04-07T10:17:01.456Z,60.3
2019-04-07T10:17:52.365Z,60.3
2019-04-07T10:18:40.652Z,60.3
2019-04-07T10:19:33.291Z,60.3
2019-04-07T10:20:28.584Z,60.3
2019-04-07T10:21:12.531Z,60.3
2019-04-07T10:22:05.908Z,60.3
2019-04-07T10:22:53.060Z,60.3
2019-04-07T10:23:43.485Z,60.2
2019-04-07T10:24:33.585Z,60.2
2019-04-07T10:25:22.929Z,60.2
2019-04-07T10:26:12.834Z,60.1
2019-04-07T10:27:03.401Z,60.1
2019-04-07T10:27:53.240Z,60.1
2019-04-07T10:28:52.265Z,60.1
2019-04-07T10:29:33.014Z,60.1
2019-04-07T10:30:24.780Z,60.1
2019-04-07T10:31:12.492Z,60.1
2019-04-07T10:32:03.462Z,60.1
2019-04-07T10:32:53.538Z,60.1
2019-04-07T10:33:43.257Z,60.1
2019-04-07T10:34:33.105Z,60.1
2019-04-07T10:35:23.573Z,60.1
2019-04-07T10:36:13.679Z,60
2019-04-07T10:37:10.119Z,60
2019-04-07T10:37:59.119Z,60
2019-04-07T10:38:45.612Z,59.9
2019-04-07T10:39:33.630Z,59.9
2019-04-07T10:40:29.096Z,59.9
2019-04-07T10:41:17.164Z,59.9
2019-04-07T10:42:07.685Z,59.9
2019-04-07T10:43:00.764Z,59.9
2019-04-07T10:43:46.741Z,59.9
2019-04-07T10:44:36.559Z,59.9
2019-04-07T10:45:23.145Z,59.9
2019-04-07T10:46:16.836Z,59.9
2019-04-07T10:47:05.983Z,59.9
2019-04-07T10:47:57.815Z,59.8
2019-04-07T10:48:44.447Z,59.8
2019-04-07T10:49:35.152Z,59.8
2019-04-07T10:50:27.346Z,59.8
2019-04-07T10:51:15.492Z,59.8
2019-04-07T10:52:06.118Z,59.8
2019-04-07T10:52:57.916Z,59.8
2019-04-07T10:53:45.410Z,59.8
2019-04-07T10:54:34.386Z,59.8
2019-04-07T10:55:26.339Z,59.7
2019-04-07T10:56:16.287Z,59.7
2019-04-07T10:57:07.431Z,59.7
2019-04-07T10:57:57.206Z,59.7
2019-04-07T10:58:47.195Z,59.7
2019-04-07T10:59:35.601Z,59.7
2019-04-07T11:00:27.771Z,59.7
2019-04-07T11:01:16.735Z,59.6
2019-04-07T11:02:05.987Z,59.6
2019-04-07T11:03:03.124Z,59.6
2019-04-07T11:03:45.863Z,59.6
2019-04-07T11:04:36.321Z,59.6
2019-04-07T11:05:27.905Z,59.6
2019-04-07T11:06:19.705Z,59.6
2019-04-07T11:07:08.354Z,59.6
2019-04-07T11:07:55.859Z,59.6
2019-04-07T11:08:47.643Z,59.6
2019-04-07T11:09:35.625Z,59.5
2019-04-07T11:10:45.267Z,59.5
2019-04-07T11:11:16.772Z,59.5
2019-04-07T11:12:07.723Z,59.5
2019-04-07T11:12:59.210Z,59.4
2019-04-07T11:13:47.500Z,59.4
2019-04-07T11:14:37.076Z,59.4
2019-04-07T11:15:27.607Z,59.4
2019-04-07T11:16:17.333Z,59.4
2019-04-07T11:17:10.576Z,59.4
2019-04-07T11:17:57.057Z,59.4
2019-04-07T11:18:47.212Z,59.4
2019-04-07T11:19:40.042Z,59.4
2019-04-07T11:20:24.800Z,59.4
2019-04-07T11:21:17.743Z,59.4
2019-04-07T11:22:07.619Z,59.4
2019-04-07T11:22:58.567Z,59.3
2019-04-07T11:23:48.085Z,59.3
2019-04-07T11:24:39.024Z,59.3
2019-04-07T11:25:27.308Z,59.3
2019-04-07T11:26:18.567Z,59.3
2019-04-07T11:27:07.968Z,59.3
2019-04-07T11:27:58.228Z,59.3
2019-04-07T11:28:49.080Z,59.3
2019-04-07T11:29:44.199Z,59.3
2019-04-07T11:30:29.317Z,59.2
2019-04-07T11:31:18.763Z,59.2
2019-04-07T11:32:07.558Z,59.2
2019-04-07T11:32:58.872Z,59.2
2019-04-07T11:33:47.511Z,59.2
2019-04-07T11:34:37.338Z,59.1
2019-04-07T11:35:35.599Z,59.1
2019-04-07T11:36:26.909Z,59.1
2019-04-07T11:37:15.446Z,59.1
2019-04-07T11:37:58.952Z,59.1
2019-04-07T11:38:48.386Z,59.1
2019-04-07T11:39:38.721Z,59.1
2019-04-07T11:40:29.168Z,59.1
2019-04-07T11:41:28.453Z,59.1
2019-04-07T11:42:10.144Z,59.1
2019-04-07T11:42:59.474Z,59.1
2019-04-07T11:43:48.706Z,59
2019-04-07T11:44:38.619Z,59
2019-04-07T11:45:29.429Z,59
2019-04-07T11:46:20.278Z,58.9
2019-04-07T11:47:08.823Z,59
2019-04-07T11:48:00.143Z,58.9
2019-04-07T11:48:50.389Z,58.9
2019-04-07T11:49:46.651Z,58.9
2019-04-07T11:50:29.906Z,58.9
2019-04-07T11:51:20.589Z,58.9
2019-04-07T11:52:09.230Z,58.9
2019-04-07T11:53:00.529Z,58.9
2019-04-07T11:53:50.219Z,58.9
2019-04-07T11:54:41.448Z,58.9
2019-04-07T11:55:33.946Z,58.9
2019-04-07T11:56:19.553Z,58.8
2019-04-07T11:57:09.805Z,58.8
2019-04-07T11:58:37.331Z,58.8
2019-04-07T11:58:57.303Z,58.8
2019-04-07T11:59:47.861Z,58.8
2019-04-07T12:00:43.538Z,58.8
2019-04-07T12:01:30.172Z,58.8
2019-04-07T12:02:26.348Z,58.8
2019-04-07T12:03:10.599Z,58.7
2019-04-07T12:04:03.512Z,58.7
2019-04-07T12:06:20.237Z,58.7
2019-04-07T12:07:01.307Z,58.7
2019-04-07T12:08:02.269Z,58.6
2019-04-07T12:08:42.903Z,58.6
2019-04-07T12:09:31.975Z,58.6
2019-04-07T12:10:22.466Z,58.6
2019-04-07T12:11:15.640Z,58.6
2019-04-07T12:17:53.465Z,58.5
2019-04-07T12:18:42.674Z,58.5
2019-04-07T12:19:34.852Z,58.5
2019-04-07T12:20:24.100Z,58.5
2019-04-07T12:21:28.564Z,58.4
2019-04-07T12:22:09.308Z,58.4
2019-04-07T12:22:55.459Z,58.4
2019-04-07T12:23:45.394Z,58.4
2019-04-07T12:24:49.101Z,58.4
2019-04-07T12:25:23.986Z,58.4
2019-04-07T12:26:12.766Z,58.3
2019-04-07T12:27:10.800Z,58.3
2019-04-07T12:27:52.379Z,58.3
2019-04-07T12:28:43.683Z,58.3
2019-04-07T12:29:33.146Z,58.3
2019-04-07T12:30:28.422Z,58.3
2019-04-07T12:31:15.304Z,58.3
2019-04-07T12:32:05.100Z,58.2
2019-04-07T12:32:54.089Z,58.2
2019-04-07T12:33:44.901Z,58.2
2019-04-07T12:34:34.909Z,58.2
2019-04-07T12:35:27.624Z,58.2
2019-04-07T12:36:17.205Z,58.1
2019-04-07T12:37:12.500Z,58.1
2019-04-07T12:37:57.768Z,58.1
2019-04-07T12:38:49.520Z,58.1
2019-04-07T12:39:39.234Z,58.1
2019-04-07T12:40:30.540Z,58.1
2019-04-07T12:41:33.699Z,58.1
2019-04-07T12:42:13.461Z,58
2019-04-07T12:42:55.593Z,58
2019-04-07T12:43:53.945Z,57.9
2019-04-07T12:44:34.266Z,57.9
2019-04-07T12:45:24.060Z,57.9
2019-04-07T12:46:15.537Z,57.9
2019-04-07T12:47:05.411Z,57.8
2019-04-07T12:47:55.375Z,57.8
2019-04-07T12:48:45.719Z,57.8
2019-04-07T12:49:48.647Z,57.8
2019-04-07T12:51:21.300Z,57.8
2019-04-07T12:54:43.535Z,57.7
2019-04-07T12:55:26.375Z,57.7
2019-04-07T12:56:16.875Z,57.7
2019-04-07T12:57:12.667Z,57.7
2019-04-07T12:57:57.051Z,57.7
2019-04-07T12:58:53.677Z,57.7
2019-04-07T12:59:37.486Z,57.6
2019-04-07T13:00:33.916Z,57.6
2019-04-07T13:01:35.859Z,57.6
2019-04-07T13:02:29.089Z,57.6
2019-04-07T13:03:16.725Z,57.6
2019-04-07T13:04:06.221Z,57.6
2019-04-07T13:04:57.266Z,57.6
2019-04-07T13:05:46.317Z,57.6
2019-04-07T13:06:43.237Z,57.5
2019-04-07T13:07:27.138Z,57.5
2019-04-07T13:08:16.880Z,57.5
2019-04-07T13:09:04.927Z,57.5
2019-04-07T13:10:00.183Z,57.5
2019-04-07T13:10:49.328Z,57.5
2019-04-07T13:11:54.618Z,57.4
2019-04-07T13:12:30.801Z,57.4
2019-04-07T13:13:18.089Z,57.4
2019-04-07T13:14:15.059Z,57.4
2019-04-07T13:14:56.039Z,57.4
2019-04-07T13:15:54.768Z,57.4
2019-04-07T13:16:37.009Z,57.4
2019-04-07T13:17:37.632Z,57.4
2019-04-07T13:18:17.753Z,57.4
2019-04-07T13:19:18.793Z,57.4
2019-04-07T13:19:59.742Z,57.4
2019-04-07T13:20:53.656Z,57.3
2019-04-07T13:21:38.084Z,57.3
2019-04-07T13:22:27.226Z,57.3
2019-04-07T13:23:19.225Z,57.3
2019-04-07T13:24:48.408Z,57.3
2019-04-07T13:25:13.025Z,57.3
2019-04-07T13:26:05.386Z,57.3
2019-04-07T13:26:55.127Z,57.3
2019-04-07T13:27:44.987Z,57.3
2019-04-07T13:28:34.050Z,57.2
2019-04-07T13:29:24.020Z,57.2
2019-04-07T13:30:14.368Z,57.2
2019-04-07T13:31:04.820Z,57.2
2019-04-07T13:31:58.485Z,57.2
2019-04-07T13:33:05.340Z,57.2
2019-04-07T13:33:36.071Z,57.1
2019-04-07T13:34:38.858Z,57.1
2019-04-07T13:35:11.987Z,57.1
2019-04-07T13:36:05.005Z,57.1
2019-04-07T13:36:57.937Z,57.1
2019-04-07T13:37:47.826Z,57.1
2019-04-07T13:38:34.430Z,57.1
2019-04-07T13:39:24.800Z,57.1
2019-04-07T13:40:20.047Z,57.1
2019-04-07T13:41:05.141Z,57.1
2019-04-07T13:42:03.321Z,57.1
2019-04-07T13:42:48.649Z,57
2019-04-07T13:43:40.948Z,57
2019-04-07T13:44:24.422Z,57
2019-04-07T13:45:21.523Z,57
2019-04-07T13:46:24.342Z,57
2019-04-07T13:46:55.398Z,56.9
2019-04-07T13:47:49.584Z,56.9
2019-04-07T13:48:36.517Z,56.9
2019-04-07T13:49:37.219Z,56.9
2019-04-07T13:50:16.889Z,56.9
2019-04-07T13:51:05.474Z,56.9
2019-04-07T13:52:58.909Z,56.9
2019-04-07T13:53:52.317Z,56.9
2019-04-07T13:54:34.249Z,56.9
2019-04-07T13:55:19.432Z,56.8
2019-04-07T13:56:06.195Z,56.8
2019-04-07T13:56:57.359Z,56.8
2019-04-07T13:57:45.829Z,56.8
2019-04-07T13:58:41.077Z,56.8
2019-04-07T13:59:27.249Z,56.8
2019-04-07T14:00:22.769Z,56.8
2019-04-07T14:01:06.192Z,56.8
2019-04-07T14:02:11.015Z,56.8
2019-04-07T14:02:46.876Z,56.7
2019-04-07T14:03:39.136Z,56.7
2019-04-07T14:04:41.209Z,56.7
2019-04-07T14:07:15.364Z,56.6
2019-04-07T14:08:02.258Z,56.6
2019-04-07T14:08:51.692Z,56.6
2019-04-07T14:09:42.721Z,56.6
2019-04-07T14:10:40.452Z,56.6
2019-04-07T14:11:23.568Z,56.6
2019-04-07T14:12:18.091Z,56.6
2019-04-07T14:13:09.354Z,56.6
2019-04-07T14:13:52.297Z,56.6
2019-04-07T14:14:43.325Z,56.5
2019-04-07T16:07:18.329Z,54.2
2019-04-07T16:08:02.223Z,54.2
2019-04-07T16:09:01.515Z,54.2
2019-04-07T16:10:10.792Z,54.2
2019-04-07T16:11:01.833Z,54.2
2019-04-07T16:12:00.642Z,54.2
2019-04-07T16:13:03.097Z,54.2
2019-04-07T16:13:33.817Z,54.1
2019-04-07T16:14:21.959Z,54.1
2019-04-07T16:15:11.341Z,54.1
2019-04-07T16:16:01.520Z,54.1
2019-04-07T16:16:59.495Z,54.1
2019-04-07T16:17:47.907Z,54.1
2019-04-07T16:18:30.457Z,54.1
2019-04-07T16:19:57.057Z,54.1
2019-04-07T16:20:47.140Z,54
2019-04-07T16:21:44.290Z,54
2019-04-07T16:22:28.884Z,54
2019-04-07T16:23:23.700Z,54
2019-04-07T16:24:07.863Z,54
2019-04-07T16:25:02.321Z,53.9
2019-04-07T16:25:47.493Z,54
2019-04-07T16:26:43.258Z,53.9
2019-04-07T16:27:29.341Z,53.9
2019-04-07T16:28:21.230Z,53.9
2019-04-07T16:29:10.356Z,53.9
2019-04-07T16:29:58.523Z,53.9
2019-04-07T16:30:54.215Z,53.9
2019-04-07T16:31:37.985Z,53.9
2019-04-07T16:32:31.408Z,53.9
2019-04-07T16:33:18.160Z,53.8
2019-04-07T16:34:14.328Z,53.8
2019-04-07T16:34:57.262Z,53.8
2019-04-07T16:36:00.583Z,53.8
2019-04-07T16:36:40.099Z,53.8
2019-04-07T16:37:34.787Z,53.8
2019-04-07T16:38:21.158Z,53.8
2019-04-07T16:39:12.443Z,53.8
2019-04-07T16:39:57.932Z,53.8
2019-04-07T16:40:50.457Z,53.8
2019-04-07T16:41:37.367Z,53.8
2019-04-07T16:42:29.771Z,53.8
2019-04-07T16:43:24.617Z,53.8
2019-04-07T16:44:14.462Z,53.7
2019-04-07T16:44:59.478Z,53.7
2019-04-07T16:45:54.706Z,53.7
2019-04-07T16:46:39.650Z,53.7
2019-04-07T16:47:39.945Z,53.7
2019-04-07T16:48:18.359Z,53.6
2019-04-07T16:49:22.119Z,53.6
2019-04-07T16:49:58.703Z,53.6
2019-04-07T16:50:59.005Z,53.6
2019-04-07T16:51:40.967Z,53.6
2019-04-07T16:52:37.491Z,53.6
2019-04-07T16:53:18.979Z,53.6
2019-04-07T16:54:16.869Z,53.6
2019-04-07T16:55:00.184Z,53.5
2019-04-07T16:55:59.791Z,53.5
2019-04-07T16:56:40.217Z,53.5
2019-04-07T16:57:36.436Z,53.5
2019-04-07T16:58:21.146Z,53.5